Boyd Deep Canyon Reserve, California Weather observations

Data are for 10 minute period ending at time listed.
 Day   Time   Solar   Ave.   Ave.  Ave.  Vector  Max.   Baro.   Total    
  of    of     Rad.   Air    Rel.  Wind   Wind   Wind  Press.  Precip.   
Year   Day            Temp.  Hum.  Speed  Dir.   Gust                    
2015   (PST)  Kw/m2    F      %     mph   deg.    mph    mb.     in.     
-------------------------------------------------------------------------
 146   16:40   100.00  99999.0   99999  99999.0   99999   99999.0   99999.0   99999.00 
 146   16:50   100.00  99999.0   99999  99999.0   99999   99999.0   99999.0   99999.00 
 146   17:00   100.00  99999.0   99999  99999.0   99999   99999.0   99999.0   99999.00 
 146   17:10   100.00  99999.0   99999  99999.0   99999   99999.0   99999.0   99999.00 
 146   17:20   100.00  99999.0   99999  99999.0   99999   99999.0   99999.0   99999.00 
 146   17:30   100.00  99999.0   99999  99999.0   99999   99999.0   99999.0   99999.00 
 146   17:40   100.00  99999.0   99999  99999.0   99999   99999.0   99999.0   99999.00 
 146   17:50   100.00  99999.0   99999  99999.0   99999   99999.0   99999.0   99999.00 
 146   18:00   100.00  99999.0   99999  99999.0   99999   99999.0   99999.0   99999.00 
 146   18:10   100.00  99999.0   99999  99999.0   99999   99999.0   99999.0   99999.00 
 146   18:20   100.00  99999.0   99999  99999.0   99999   99999.0   99999.0   99999.00 
 146   18:30   100.00  99999.0   99999  99999.0   99999   99999.0   99999.0   99999.00 
 146   18:40   100.00  99999.0   99999  99999.0   99999   99999.0   99999.0   99999.00 
 146   18:50   100.00  99999.0   99999  99999.0   99999   99999.0   99999.0   99999.00 
 146   19:00   100.00  99999.0   99999  99999.0   99999   99999.0   99999.0   99999.00 
 146   19:10   100.00  99999.0   99999  99999.0   99999   99999.0   99999.0   99999.00 
 146   19:20   100.00  99999.0   99999  99999.0   99999   99999.0   99999.0   99999.00 
 146   19:30   100.00  99999.0   99999  99999.0   99999   99999.0   99999.0   99999.00 
 146   19:40   100.00  99999.0   99999  99999.0   99999   99999.0   99999.0   99999.00 
 146   19:50   100.00  99999.0   99999  99999.0   99999   99999.0   99999.0   99999.00 
 146   20:00   100.00  99999.0   99999  99999.0   99999   99999.0   99999.0   99999.00 
 146   20:10   100.00  99999.0   99999  99999.0   99999   99999.0   99999.0   99999.00 
 146   20:20   100.00  99999.0   99999  99999.0   99999   99999.0   99999.0   99999.00 
 146   20:30   100.00  99999.0   99999  99999.0   99999   99999.0   99999.0   99999.00 
 146   20:40   100.00  99999.0   99999  99999.0   99999   99999.0   99999.0   99999.00 
 146   20:50   100.00  99999.0   99999  99999.0   99999   99999.0   99999.0   99999.00 
 146   21:00   100.00  99999.0   99999  99999.0   99999   99999.0   99999.0   99999.00 
 146   21:10   100.00  99999.0   99999  99999.0   99999   99999.0   99999.0   99999.00 
 146   21:20   100.00  99999.0   99999  99999.0   99999   99999.0   99999.0   99999.00 
 146   21:30   100.00  99999.0   99999  99999.0   99999   99999.0   99999.0   99999.00 
 146   21:40   100.00  99999.0   99999  99999.0   99999   99999.0   99999.0   99999.00 
 146   21:50   100.00  99999.0   99999  99999.0   99999   99999.0   99999.0   99999.00 
 146   22:00   100.00  99999.0   99999  99999.0   99999   99999.0   99999.0   99999.00 
 146   22:10   100.00  99999.0   99999  99999.0   99999   99999.0   99999.0   99999.00 
 146   22:20   100.00  99999.0   99999  99999.0   99999   99999.0   99999.0   99999.00 
 146   22:30   100.00  99999.0   99999  99999.0   99999   99999.0   99999.0   99999.00 
 146   22:40   100.00  99999.0   99999  99999.0   99999   99999.0   99999.0   99999.00 
 146   22:50   100.00  99999.0   99999  99999.0   99999   99999.0   99999.0   99999.00 
 146   23:00   100.00  99999.0   99999  99999.0   99999   99999.0   99999.0   99999.00 
 146   23:10   100.00  99999.0   99999  99999.0   99999   99999.0   99999.0   99999.00 
 146   23:20   100.00  99999.0   99999  99999.0   99999   99999.0   99999.0   99999.00 
 146   23:30   100.00  99999.0   99999  99999.0   99999   99999.0   99999.0   99999.00 
 146   23:40   100.00  99999.0   99999  99999.0   99999   99999.0   99999.0   99999.00 
 146   23:50   100.00  99999.0   99999  99999.0   99999   99999.0   99999.0   99999.00 
 147    0:00   100.00  99999.0   99999  99999.0   99999   99999.0   99999.0   99999.00 
 147    0:10   100.00  99999.0   99999  99999.0   99999   99999.0   99999.0   99999.00 
 147    0:20   100.00  99999.0   99999  99999.0   99999   99999.0   99999.0   99999.00 
 147    0:30   100.00  99999.0   99999  99999.0   99999   99999.0   99999.0   99999.00 
 147    0:40   100.00  99999.0   99999  99999.0   99999   99999.0   99999.0   99999.00 
 147    0:50   100.00  99999.0   99999  99999.0   99999   99999.0   99999.0   99999.00 
 147    1:00   100.00  99999.0   99999  99999.0   99999   99999.0   99999.0   99999.00 
 147    1:10   100.00  99999.0   99999  99999.0   99999   99999.0   99999.0   99999.00 
 147    1:20   100.00  99999.0   99999  99999.0   99999   99999.0   99999.0   99999.00 
 147    1:30   100.00  99999.0   99999  99999.0   99999   99999.0   99999.0   99999.00 
 147    1:40   100.00  99999.0   99999  99999.0   99999   99999.0   99999.0   99999.00 
 147    1:50   100.00  99999.0   99999  99999.0   99999   99999.0   99999.0   99999.00 
 147    2:00   100.00  99999.0   99999  99999.0   99999   99999.0   99999.0   99999.00 
 147    2:10   100.00  99999.0   99999  99999.0   99999   99999.0   99999.0   99999.00 
 147    2:20   100.00  99999.0   99999  99999.0   99999   99999.0   99999.0   99999.00 
 147    2:30   100.00  99999.0   99999  99999.0   99999   99999.0   99999.0   99999.00 
 147    2:40   100.00  99999.0   99999  99999.0   99999   99999.0   99999.0   99999.00 
 147    2:50   100.00  99999.0   99999  99999.0   99999   99999.0   99999.0   99999.00 
 147    3:00   100.00  99999.0   99999  99999.0   99999   99999.0   99999.0   99999.00 
 147    3:10   100.00  99999.0   99999  99999.0   99999   99999.0   99999.0   99999.00 
 147    3:20   100.00  99999.0   99999  99999.0   99999   99999.0   99999.0   99999.00 
 147    3:30   100.00  99999.0   99999  99999.0   99999   99999.0   99999.0   99999.00 
 147    3:40   100.00  99999.0   99999  99999.0   99999   99999.0   99999.0   99999.00 
 147    3:50   100.00  99999.0   99999  99999.0   99999   99999.0   99999.0   99999.00 
 147    4:00   100.00  99999.0   99999  99999.0   99999   99999.0   99999.0   99999.00 
 147    4:10   100.00  99999.0   99999  99999.0   99999   99999.0   99999.0   99999.00 
 147    4:20   100.00  99999.0   99999  99999.0   99999   99999.0   99999.0   99999.00 
 147    4:30   100.00  99999.0   99999  99999.0   99999   99999.0   99999.0   99999.00 
 147    4:40   100.00  99999.0   99999  99999.0   99999   99999.0   99999.0   99999.00 
 147    4:50   100.00  99999.0   99999  99999.0   99999   99999.0   99999.0   99999.00 
 147    5:00   100.00  99999.0   99999  99999.0   99999   99999.0   99999.0   99999.00 
 147    5:10   0.01   63.5    67    1.1   189     1.9   976.4    0.00 
 147    5:20   0.02   63.8    66    0.3   172     1.9   976.5    0.00 
 147    5:30   0.03   64.1    65    0.9   214     1.9   976.5    0.00 
 147    5:40   0.03   64.7    64    0.3   275     2.0   976.7    0.00 
 147    5:50   0.06   65.3    62    1.5   212     3.6   976.8    0.00 
 147    6:00   0.12   66.7    59    2.1   207     3.2   976.8    0.00 
 147    6:10   0.18   69.6    52    2.5   342     5.6   976.9    0.00 
 147    6:20   0.21   67.5    58    3.4    34     5.5   977.0    0.00 
 147    6:30   0.28   67.7    58    1.2    29     2.8   977.2    0.00 
 147    6:40   0.31   71.5    50    0.0     0     0.0   977.3    0.00 
 147    6:50   0.36   73.2    47    1.3    11     2.8   977.3    0.00 
 147    7:00   0.40   71.9    49    0.8    17     2.3   977.2    0.00 
 147    7:10   0.43   74.9    43    0.1    43     0.9   977.2    0.00 
 147    7:20   0.47   78.6    34    0.8    31     2.8   977.1    0.00 
 147    7:30   0.50   78.9    31    1.1    12     2.6   977.1    0.00 
 147    7:40   0.54   79.8    28    1.9    22     5.0   977.0    0.00 
 147    7:50   0.57   79.3    28    4.2   354     6.9   976.9    0.00 
 147    8:00   0.60   78.9    30    4.7   355     6.8   976.9    0.00 
 147    8:10   0.63   78.4    35    6.5   355     8.4   977.0    0.00 
 147    8:20   0.66   77.6    38    5.4   351     8.3   977.0    0.00 
 147    8:30   0.69   78.8    33    5.9   338     8.5   977.0    0.00 
 147    8:40   0.72   78.7    33    6.8   356     9.2   976.9    0.00 
 147    8:50   0.75   79.0    34    6.4   352     9.4   976.9    0.00 
 147    9:00   0.78   79.5    33    5.4   344     8.3   976.7    0.00 
 147    9:10   0.80   80.5    32    4.1   351     7.7   976.7    0.00 
 147    9:20   0.83   81.2    31    4.8    12     7.7   976.7    0.00 
 147    9:30   0.85   81.8    30    5.6    38     9.6   976.8    0.00 
 147    9:40   0.87   82.0    30    6.6    62    10.4   976.8    0.00 
 147    9:50   0.89   82.7    27    6.5     9    10.0   976.8    0.00 
 147   10:00   0.91   82.7    27    6.6   357    10.5   976.8    0.00 
 147   10:10   0.93   83.0    27    6.0   353    10.1   976.8    0.00 
 147   10:20   0.94   83.4    27    7.5   358    11.4   976.8    0.00 
 147   10:30   0.95   83.6    27    7.3   354    11.1   976.8    0.00 
 147   10:40   0.96   84.0    25    6.6    54    11.2   976.7    0.00 
 147   10:50   0.97   84.0    25    7.3    79    11.9   976.7    0.00 
 147   11:00   0.99   83.9    25    6.8    73    11.4   976.7    0.00 
 147   11:10   1.00   84.1    25    2.7    99     9.1   976.7    0.00 
 147   11:20   0.99   84.8    25    5.1    23    10.3   976.7    0.00 
 147   11:30   1.00   85.3    24    5.2    21    10.5   976.6    0.00 
 147   11:40   1.01   85.8    24    4.1    66     9.6   976.6    0.00 
 147   11:50   1.00   86.0    24    4.5    58    12.7   976.5    0.00 
 147   12:00   1.00   85.9    24    5.4    61    12.7   976.5    0.00 
 147   12:10   0.99   86.5    23    6.0    29    10.8   976.5    0.00 
 147   12:20   0.98   86.1    23    4.1    47    11.2   976.4    0.00 
 147   12:30   0.99   87.7    21    4.1    45     9.4   976.3    0.00 
 147   12:40   0.99   87.4    20    5.3    52    12.2   976.2    0.00 
 147   12:50   0.97   87.8    20    6.9    27    12.4   976.1    0.00 
 147   13:00   0.96   87.5    20    5.8    65    11.6   976.1    0.00 
 147   13:10   0.95   88.2    19    7.6    58    12.8   976.0    0.00 
 147   13:20   0.93   88.1    19    8.0    53    12.8   976.0    0.00 
 147   13:30   0.92   88.6    18    5.1    36    11.4   975.8    0.00 
 147   13:40   0.90   89.2    18    6.3    40    13.8   975.7    0.00 
 147   13:50   0.88   89.2    18    4.8    52    10.7   975.6    0.00 
 147   14:00   0.86   88.8    18    7.2    76    13.4   975.5    0.00 
 147   14:10   0.84   88.6    18    6.1    66    14.3   975.4    0.00 
 147   14:20   0.82   89.2    18    6.7    70    13.6   975.3    0.00 
 147   14:30   0.80   88.6    18    8.4    66    15.2   975.2    0.00 
 147   14:40   0.77   89.0    18    5.8    57    12.3   975.1    0.00 
 147   14:50   0.74   89.1    18    6.7    67    12.9   975.0    0.00 
 147   15:00   0.71   89.4    17    8.0    66    13.4   974.9    0.00 
 147   15:10   0.68   89.2    17    5.7    99    11.7   974.8    0.00 
 147   15:20   0.65   89.6    17    6.5    77    13.1   974.7    0.00 
 147   15:30   0.62   89.4    17    5.1    76    10.2   974.7    0.00 
 147   15:40   0.58   89.7    17    5.8    63    12.5   974.7    0.00 
 147   15:50   0.55   90.0    17    5.9    59    14.2   974.7    0.00 
 147   16:00   0.52   90.0    17    4.9    67    11.3   974.7    0.00 
 147   16:10   0.48   89.6    17    5.9    86    11.0   974.6    0.00 
 147   16:20   0.45   89.9    17    5.0    62     9.3   974.4    0.00 
 147   16:30   0.41   89.7    17    5.1    61    12.1   974.3    0.00 

Return to Boyd Deep Canyon Reserve graphs page.


Western Regional Climate Center,wrcc@dri.edu